sensor_id;sensor_type;location;lat;lon;timestamp;P1;durP1;ratioP1;P2;durP2;ratioP2
3337;SDS011;1682;49.286;10.788;2022-10-03T00:00:16;13.77;;;7.47;;
3337;SDS011;1682;49.286;10.788;2022-10-03T00:05:35;13.70;;;9.00;;
3337;SDS011;1682;49.286;10.788;2022-10-03T00:08:08;11.50;;;10.27;;
3337;SDS011;1682;49.286;10.788;2022-10-03T00:10:47;12.70;;;9.67;;
3337;SDS011;1682;49.286;10.788;2022-10-03T00:13:17;11.90;;;8.87;;
3337;SDS011;1682;49.286;10.788;2022-10-03T00:15:47;16.23;;;8.20;;
3337;SDS011;1682;49.286;10.788;2022-10-03T00:18:19;25.63;;;13.13;;
3337;SDS011;1682;49.286;10.788;2022-10-03T00:20:51;14.73;;;8.40;;
3337;SDS011;1682;49.286;10.788;2022-10-03T00:23:20;12.20;;;8.60;;
3337;SDS011;1682;49.286;10.788;2022-10-03T00:25:52;17.20;;;9.10;;
3337;SDS011;1682;49.286;10.788;2022-10-03T00:28:24;10.07;;;8.73;;
3337;SDS011;1682;49.286;10.788;2022-10-03T00:30:57;15.90;;;8.80;;
3337;SDS011;1682;49.286;10.788;2022-10-03T00:33:32;15.90;;;9.03;;
3337;SDS011;1682;49.286;10.788;2022-10-03T00:36:05;11.67;;;7.33;;
3337;SDS011;1682;49.286;10.788;2022-10-03T00:41:31;13.37;;;7.90;;
3337;SDS011;1682;49.286;10.788;2022-10-03T00:46:57;16.40;;;8.63;;
3337;SDS011;1682;49.286;10.788;2022-10-03T00:49:34;11.10;;;8.53;;
3337;SDS011;1682;49.286;10.788;2022-10-03T00:54:54;17.30;;;9.30;;
3337;SDS011;1682;49.286;10.788;2022-10-03T00:57:34;11.13;;;9.00;;
3337;SDS011;1682;49.286;10.788;2022-10-03T01:00:15;13.33;;;8.70;;
3337;SDS011;1682;49.286;10.788;2022-10-03T01:02:46;13.87;;;8.90;;
3337;SDS011;1682;49.286;10.788;2022-10-03T01:05:19;10.90;;;8.00;;
3337;SDS011;1682;49.286;10.788;2022-10-03T01:07:54;18.20;;;9.63;;
3337;SDS011;1682;49.286;10.788;2022-10-03T01:10:26;11.90;;;8.50;;
3337;SDS011;1682;49.286;10.788;2022-10-03T01:13:11;15.57;;;9.67;;
3337;SDS011;1682;49.286;10.788;2022-10-03T01:15:45;16.83;;;10.13;;
3337;SDS011;1682;49.286;10.788;2022-10-03T01:18:20;15.60;;;10.13;;
3337;SDS011;1682;49.286;10.788;2022-10-03T01:20:53;13.70;;;9.00;;
3337;SDS011;1682;49.286;10.788;2022-10-03T01:26:14;10.67;;;8.37;;
3337;SDS011;1682;49.286;10.788;2022-10-03T01:28:47;15.90;;;10.23;;
3337;SDS011;1682;49.286;10.788;2022-10-03T01:31:37;16.63;;;11.73;;
3337;SDS011;1682;49.286;10.788;2022-10-03T01:34:09;24.40;;;11.13;;
3337;SDS011;1682;49.286;10.788;2022-10-03T01:36:38;27.23;;;10.73;;
3337;SDS011;1682;49.286;10.788;2022-10-03T01:39:12;15.40;;;9.67;;
3337;SDS011;1682;49.286;10.788;2022-10-03T01:41:43;16.87;;;9.87;;
3337;SDS011;1682;49.286;10.788;2022-10-03T01:44:16;21.10;;;10.00;;
3337;SDS011;1682;49.286;10.788;2022-10-03T01:46:49;14.00;;;9.83;;
3337;SDS011;1682;49.286;10.788;2022-10-03T01:49:18;20.87;;;9.80;;
3337;SDS011;1682;49.286;10.788;2022-10-03T01:51:50;10.70;;;8.77;;
3337;SDS011;1682;49.286;10.788;2022-10-03T01:54:19;31.93;;;12.20;;
3337;SDS011;1682;49.286;10.788;2022-10-03T01:56:51;14.80;;;8.67;;
3337;SDS011;1682;49.286;10.788;2022-10-03T01:59:21;13.27;;;8.60;;
3337;SDS011;1682;49.286;10.788;2022-10-03T02:01:51;17.70;;;9.70;;
3337;SDS011;1682;49.286;10.788;2022-10-03T02:04:22;15.00;;;8.30;;
3337;SDS011;1682;49.286;10.788;2022-10-03T02:06:58;22.43;;;10.30;;
3337;SDS011;1682;49.286;10.788;2022-10-03T02:09:32;19.20;;;9.20;;
3337;SDS011;1682;49.286;10.788;2022-10-03T02:12:09;16.90;;;10.30;;
3337;SDS011;1682;49.286;10.788;2022-10-03T02:14:46;17.90;;;10.33;;
3337;SDS011;1682;49.286;10.788;2022-10-03T02:17:20;12.70;;;8.60;;
3337;SDS011;1682;49.286;10.788;2022-10-03T02:19:55;17.57;;;10.03;;
3337;SDS011;1682;49.286;10.788;2022-10-03T02:22:30;19.37;;;10.30;;
3337;SDS011;1682;49.286;10.788;2022-10-03T02:30:39;19.00;;;9.10;;
3337;SDS011;1682;49.286;10.788;2022-10-03T02:33:24;14.70;;;8.53;;
3337;SDS011;1682;49.286;10.788;2022-10-03T02:41:47;9.20;;;7.60;;
3337;SDS011;1682;49.286;10.788;2022-10-03T02:44:33;15.27;;;9.40;;
3337;SDS011;1682;49.286;10.788;2022-10-03T02:47:26;12.60;;;8.47;;
3337;SDS011;1682;49.286;10.788;2022-10-03T02:53:09;13.37;;;9.40;;
3337;SDS011;1682;49.286;10.788;2022-10-03T02:55:52;18.03;;;9.90;;
3337;SDS011;1682;49.286;10.788;2022-10-03T02:58:34;17.83;;;11.07;;
3337;SDS011;1682;49.286;10.788;2022-10-03T03:01:20;16.23;;;8.97;;
3337;SDS011;1682;49.286;10.788;2022-10-03T03:04:02;12.60;;;9.27;;
3337;SDS011;1682;49.286;10.788;2022-10-03T03:06:40;15.07;;;9.80;;
3337;SDS011;1682;49.286;10.788;2022-10-03T03:09:33;14.37;;;9.90;;
3337;SDS011;1682;49.286;10.788;2022-10-03T03:14:56;28.43;;;11.90;;
3337;SDS011;1682;49.286;10.788;2022-10-03T03:17:28;17.80;;;9.27;;
3337;SDS011;1682;49.286;10.788;2022-10-03T03:20:05;21.33;;;9.17;;
3337;SDS011;1682;49.286;10.788;2022-10-03T03:22:40;17.30;;;10.03;;
3337;SDS011;1682;49.286;10.788;2022-10-03T03:25:14;13.73;;;9.73;;
3337;SDS011;1682;49.286;10.788;2022-10-03T03:27:47;17.10;;;9.60;;
3337;SDS011;1682;49.286;10.788;2022-10-03T03:30:21;24.93;;;9.57;;
3337;SDS011;1682;49.286;10.788;2022-10-03T03:32:55;21.23;;;9.33;;
3337;SDS011;1682;49.286;10.788;2022-10-03T03:35:29;16.17;;;10.97;;
3337;SDS011;1682;49.286;10.788;2022-10-03T03:38:00;14.77;;;9.20;;
3337;SDS011;1682;49.286;10.788;2022-10-03T03:40:38;19.20;;;9.57;;
3337;SDS011;1682;49.286;10.788;2022-10-03T03:45:54;15.73;;;9.77;;
3337;SDS011;1682;49.286;10.788;2022-10-03T03:51:25;16.20;;;9.27;;
3337;SDS011;1682;49.286;10.788;2022-10-03T03:57:04;15.23;;;9.43;;
3337;SDS011;1682;49.286;10.788;2022-10-03T03:59:38;14.67;;;8.20;;
3337;SDS011;1682;49.286;10.788;2022-10-03T04:02:16;15.83;;;9.97;;
3337;SDS011;1682;49.286;10.788;2022-10-03T04:04:50;10.30;;;8.50;;
3337;SDS011;1682;49.286;10.788;2022-10-03T04:07:26;15.57;;;8.43;;
3337;SDS011;1682;49.286;10.788;2022-10-03T04:10:04;16.33;;;10.47;;
3337;SDS011;1682;49.286;10.788;2022-10-03T04:12:36;20.00;;;10.23;;
3337;SDS011;1682;49.286;10.788;2022-10-03T04:15:09;16.57;;;11.80;;
3337;SDS011;1682;49.286;10.788;2022-10-03T04:21:01;15.60;;;8.10;;
3337;SDS011;1682;49.286;10.788;2022-10-03T04:23:37;15.27;;;8.70;;
3337;SDS011;1682;49.286;10.788;2022-10-03T04:26:15;21.10;;;11.77;;
3337;SDS011;1682;49.286;10.788;2022-10-03T04:28:54;16.33;;;9.63;;
3337;SDS011;1682;49.286;10.788;2022-10-03T04:31:29;17.10;;;9.63;;
3337;SDS011;1682;49.286;10.788;2022-10-03T04:34:07;17.80;;;8.60;;
3337;SDS011;1682;49.286;10.788;2022-10-03T04:36:52;17.77;;;9.57;;
3337;SDS011;1682;49.286;10.788;2022-10-03T04:39:27;21.93;;;8.87;;
3337;SDS011;1682;49.286;10.788;2022-10-03T04:41:58;15.23;;;7.70;;
3337;SDS011;1682;49.286;10.788;2022-10-03T04:44:38;21.93;;;8.70;;
3337;SDS011;1682;49.286;10.788;2022-10-03T04:47:13;16.23;;;9.13;;
3337;SDS011;1682;49.286;10.788;2022-10-03T04:49:43;18.20;;;9.80;;
3337;SDS011;1682;49.286;10.788;2022-10-03T04:52:15;25.97;;;9.90;;
3337;SDS011;1682;49.286;10.788;2022-10-03T04:54:47;17.67;;;8.57;;
3337;SDS011;1682;49.286;10.788;2022-10-03T04:57:23;17.50;;;9.47;;
3337;SDS011;1682;49.286;10.788;2022-10-03T04:59:54;18.00;;;9.57;;
3337;SDS011;1682;49.286;10.788;2022-10-03T05:05:15;18.20;;;11.50;;
3337;SDS011;1682;49.286;10.788;2022-10-03T05:07:46;16.57;;;9.87;;
3337;SDS011;1682;49.286;10.788;2022-10-03T05:13:04;17.40;;;10.50;;
3337;SDS011;1682;49.286;10.788;2022-10-03T05:15:38;17.53;;;10.30;;
3337;SDS011;1682;49.286;10.788;2022-10-03T05:18:12;24.93;;;8.93;;
3337;SDS011;1682;49.286;10.788;2022-10-03T05:20:43;17.40;;;9.20;;
3337;SDS011;1682;49.286;10.788;2022-10-03T05:23:18;18.77;;;9.53;;
3337;SDS011;1682;49.286;10.788;2022-10-03T05:25:48;16.90;;;8.67;;
3337;SDS011;1682;49.286;10.788;2022-10-03T05:28:24;18.73;;;8.90;;
3337;SDS011;1682;49.286;10.788;2022-10-03T05:30:56;17.50;;;10.17;;
3337;SDS011;1682;49.286;10.788;2022-10-03T05:33:33;16.33;;;9.23;;
3337;SDS011;1682;49.286;10.788;2022-10-03T05:36:12;16.30;;;9.07;;
3337;SDS011;1682;49.286;10.788;2022-10-03T05:41:27;14.00;;;10.20;;
3337;SDS011;1682;49.286;10.788;2022-10-03T05:44:00;16.80;;;8.90;;
3337;SDS011;1682;49.286;10.788;2022-10-03T05:46:33;19.10;;;10.50;;
3337;SDS011;1682;49.286;10.788;2022-10-03T05:49:07;15.33;;;10.67;;
3337;SDS011;1682;49.286;10.788;2022-10-03T05:51:42;17.03;;;11.33;;
3337;SDS011;1682;49.286;10.788;2022-10-03T05:54:21;16.77;;;9.77;;
3337;SDS011;1682;49.286;10.788;2022-10-03T05:56:57;20.33;;;10.80;;
3337;SDS011;1682;49.286;10.788;2022-10-03T06:02:23;16.20;;;9.87;;
3337;SDS011;1682;49.286;10.788;2022-10-03T06:04:56;16.70;;;11.67;;
3337;SDS011;1682;49.286;10.788;2022-10-03T06:07:28;18.97;;;10.43;;
3337;SDS011;1682;49.286;10.788;2022-10-03T06:10:07;27.00;;;19.37;;
3337;SDS011;1682;49.286;10.788;2022-10-03T06:12:41;23.10;;;16.30;;
3337;SDS011;1682;49.286;10.788;2022-10-03T06:15:28;15.80;;;10.70;;
3337;SDS011;1682;49.286;10.788;2022-10-03T06:18:02;18.60;;;10.50;;
3337;SDS011;1682;49.286;10.788;2022-10-03T06:20:43;22.83;;;11.20;;
3337;SDS011;1682;49.286;10.788;2022-10-03T06:29:21;16.30;;;10.40;;
3337;SDS011;1682;49.286;10.788;2022-10-03T06:32:14;15.27;;;9.27;;
3337;SDS011;1682;49.286;10.788;2022-10-03T06:34:59;18.40;;;9.80;;
3337;SDS011;1682;49.286;10.788;2022-10-03T06:40:31;21.40;;;14.93;;
3337;SDS011;1682;49.286;10.788;2022-10-03T06:43:10;19.97;;;12.80;;
3337;SDS011;1682;49.286;10.788;2022-10-03T06:46:03;14.80;;;9.60;;
3337;SDS011;1682;49.286;10.788;2022-10-03T06:54:08;20.23;;;10.43;;
3337;SDS011;1682;49.286;10.788;2022-10-03T06:59:35;14.60;;;8.47;;
3337;SDS011;1682;49.286;10.788;2022-10-03T07:05:01;17.17;;;10.53;;
3337;SDS011;1682;49.286;10.788;2022-10-03T07:10:27;14.63;;;8.17;;
3337;SDS011;1682;49.286;10.788;2022-10-03T07:13:07;13.80;;;8.47;;
3337;SDS011;1682;49.286;10.788;2022-10-03T07:15:51;15.90;;;8.60;;
3337;SDS011;1682;49.286;10.788;2022-10-03T07:18:34;16.90;;;9.20;;
3337;SDS011;1682;49.286;10.788;2022-10-03T07:23:55;11.60;;;7.67;;
3337;SDS011;1682;49.286;10.788;2022-10-03T07:26:42;15.37;;;9.00;;
3337;SDS011;1682;49.286;10.788;2022-10-03T07:29:21;18.63;;;11.00;;
3337;SDS011;1682;49.286;10.788;2022-10-03T07:31:56;22.90;;;7.90;;
3337;SDS011;1682;49.286;10.788;2022-10-03T07:34:32;13.90;;;9.03;;
3337;SDS011;1682;49.286;10.788;2022-10-03T07:37:10;10.83;;;9.50;;
3337;SDS011;1682;49.286;10.788;2022-10-03T07:40:06;13.10;;;7.20;;
3337;SDS011;1682;49.286;10.788;2022-10-03T07:42:50;24.53;;;7.37;;
3337;SDS011;1682;49.286;10.788;2022-10-03T07:45:33;10.30;;;7.67;;
3337;SDS011;1682;49.286;10.788;2022-10-03T07:51:03;10.30;;;6.57;;
3337;SDS011;1682;49.286;10.788;2022-10-03T07:53:42;12.33;;;7.00;;
3337;SDS011;1682;49.286;10.788;2022-10-03T07:56:18;14.63;;;6.43;;
3337;SDS011;1682;49.286;10.788;2022-10-03T07:59:02;9.17;;;6.50;;
3337;SDS011;1682;49.286;10.788;2022-10-03T08:01:35;10.83;;;6.07;;
3337;SDS011;1682;49.286;10.788;2022-10-03T08:04:23;8.83;;;6.20;;
3337;SDS011;1682;49.286;10.788;2022-10-03T08:07:00;7.40;;;5.63;;
3337;SDS011;1682;49.286;10.788;2022-10-03T08:09:46;10.40;;;7.47;;
3337;SDS011;1682;49.286;10.788;2022-10-03T08:12:41;7.77;;;6.90;;
3337;SDS011;1682;49.286;10.788;2022-10-03T08:15:18;9.17;;;5.53;;
3337;SDS011;1682;49.286;10.788;2022-10-03T08:17:56;8.50;;;5.60;;
3337;SDS011;1682;49.286;10.788;2022-10-03T08:20:32;7.27;;;5.20;;
3337;SDS011;1682;49.286;10.788;2022-10-03T08:23:06;9.50;;;4.83;;
3337;SDS011;1682;49.286;10.788;2022-10-03T08:25:42;8.53;;;5.47;;
3337;SDS011;1682;49.286;10.788;2022-10-03T08:28:23;9.00;;;8.10;;
3337;SDS011;1682;49.286;10.788;2022-10-03T08:31:03;7.80;;;4.90;;
3337;SDS011;1682;49.286;10.788;2022-10-03T08:36:33;6.03;;;5.10;;
3337;SDS011;1682;49.286;10.788;2022-10-03T08:39:10;13.10;;;5.20;;
3337;SDS011;1682;49.286;10.788;2022-10-03T08:41:55;6.23;;;4.50;;
3337;SDS011;1682;49.286;10.788;2022-10-03T08:47:31;4.70;;;3.67;;
3337;SDS011;1682;49.286;10.788;2022-10-03T08:50:06;5.13;;;3.80;;
3337;SDS011;1682;49.286;10.788;2022-10-03T08:52:42;8.73;;;4.50;;
3337;SDS011;1682;49.286;10.788;2022-10-03T08:55:21;7.70;;;3.87;;
3337;SDS011;1682;49.286;10.788;2022-10-03T09:00:57;6.00;;;3.87;;
3337;SDS011;1682;49.286;10.788;2022-10-03T09:03:49;4.50;;;3.33;;
3337;SDS011;1682;49.286;10.788;2022-10-03T09:09:24;4.90;;;3.30;;
3337;SDS011;1682;49.286;10.788;2022-10-03T09:12:01;14.20;;;3.57;;
3337;SDS011;1682;49.286;10.788;2022-10-03T09:14:39;7.30;;;4.80;;
3337;SDS011;1682;49.286;10.788;2022-10-03T09:17:13;5.80;;;2.90;;
3337;SDS011;1682;49.286;10.788;2022-10-03T09:19:52;4.43;;;2.27;;
3337;SDS011;1682;49.286;10.788;2022-10-03T09:25:13;4.23;;;2.70;;
3337;SDS011;1682;49.286;10.788;2022-10-03T09:30:32;9.83;;;3.00;;
3337;SDS011;1682;49.286;10.788;2022-10-03T09:33:10;3.13;;;2.83;;
3337;SDS011;1682;49.286;10.788;2022-10-03T09:38:57;6.50;;;3.00;;
3337;SDS011;1682;49.286;10.788;2022-10-03T09:44:18;4.83;;;3.03;;
3337;SDS011;1682;49.286;10.788;2022-10-03T09:46:55;6.23;;;2.77;;
3337;SDS011;1682;49.286;10.788;2022-10-03T09:49:50;4.27;;;2.53;;
3337;SDS011;1682;49.286;10.788;2022-10-03T09:52:28;7.50;;;4.40;;
3337;SDS011;1682;49.286;10.788;2022-10-03T09:55:10;2.90;;;2.70;;
3337;SDS011;1682;49.286;10.788;2022-10-03T10:00:25;7.63;;;3.07;;
3337;SDS011;1682;49.286;10.788;2022-10-03T10:03:02;8.07;;;3.27;;
3337;SDS011;1682;49.286;10.788;2022-10-03T10:11:09;3.67;;;3.13;;
3337;SDS011;1682;49.286;10.788;2022-10-03T10:25:05;4.67;;;4.03;;
3337;SDS011;1682;49.286;10.788;2022-10-03T10:27:50;3.93;;;3.00;;
3337;SDS011;1682;49.286;10.788;2022-10-03T10:30:25;3.87;;;2.07;;
3337;SDS011;1682;49.286;10.788;2022-10-03T10:33:12;1.73;;;1.53;;
3337;SDS011;1682;49.286;10.788;2022-10-03T10:38:47;2.13;;;1.90;;
3337;SDS011;1682;49.286;10.788;2022-10-03T10:47:11;2.00;;;1.90;;
3337;SDS011;1682;49.286;10.788;2022-10-03T10:49:54;6.60;;;2.47;;
3337;SDS011;1682;49.286;10.788;2022-10-03T10:55:37;1.97;;;1.80;;
3337;SDS011;1682;49.286;10.788;2022-10-03T11:00:56;4.20;;;1.83;;
3337;SDS011;1682;49.286;10.788;2022-10-03T11:09:15;4.10;;;1.73;;
3337;SDS011;1682;49.286;10.788;2022-10-03T11:14:38;4.80;;;1.57;;
3337;SDS011;1682;49.286;10.788;2022-10-03T11:17:21;2.97;;;1.20;;
3337;SDS011;1682;49.286;10.788;2022-10-03T11:34:18;3.60;;;2.27;;
3337;SDS011;1682;49.286;10.788;2022-10-03T11:37:02;1.70;;;1.60;;
3337;SDS011;1682;49.286;10.788;2022-10-03T11:39:32;5.90;;;1.90;;
3337;SDS011;1682;49.286;10.788;2022-10-03T11:42:01;3.30;;;2.23;;
3337;SDS011;1682;49.286;10.788;2022-10-03T11:44:32;2.30;;;1.23;;
3337;SDS011;1682;49.286;10.788;2022-10-03T11:47:23;1.60;;;1.50;;
3337;SDS011;1682;49.286;10.788;2022-10-03T11:50:09;2.17;;;1.83;;
3337;SDS011;1682;49.286;10.788;2022-10-03T11:52:46;2.93;;;1.70;;
3337;SDS011;1682;49.286;10.788;2022-10-03T11:55:20;2.50;;;1.60;;
3337;SDS011;1682;49.286;10.788;2022-10-03T11:57:52;2.20;;;2.00;;
3337;SDS011;1682;49.286;10.788;2022-10-03T12:00:24;1.70;;;1.53;;
3337;SDS011;1682;49.286;10.788;2022-10-03T12:03:08;3.87;;;2.90;;
3337;SDS011;1682;49.286;10.788;2022-10-03T12:05:47;5.37;;;3.00;;
3337;SDS011;1682;49.286;10.788;2022-10-03T12:08:21;1.77;;;1.67;;
3337;SDS011;1682;49.286;10.788;2022-10-03T12:11:12;2.03;;;1.80;;
3337;SDS011;1682;49.286;10.788;2022-10-03T12:13:42;4.93;;;1.50;;
3337;SDS011;1682;49.286;10.788;2022-10-03T12:16:13;3.67;;;1.63;;
3337;SDS011;1682;49.286;10.788;2022-10-03T12:18:49;3.07;;;1.70;;
3337;SDS011;1682;49.286;10.788;2022-10-03T12:21:20;6.20;;;2.13;;
3337;SDS011;1682;49.286;10.788;2022-10-03T12:23:53;3.30;;;1.50;;
3337;SDS011;1682;49.286;10.788;2022-10-03T12:26:25;5.00;;;2.03;;
3337;SDS011;1682;49.286;10.788;2022-10-03T12:28:53;5.97;;;2.40;;
3337;SDS011;1682;49.286;10.788;2022-10-03T12:31:23;2.93;;;1.60;;
3337;SDS011;1682;49.286;10.788;2022-10-03T12:33:53;3.23;;;1.60;;
3337;SDS011;1682;49.286;10.788;2022-10-03T12:36:24;3.00;;;1.77;;
3337;SDS011;1682;49.286;10.788;2022-10-03T12:39:06;6.33;;;1.60;;
3337;SDS011;1682;49.286;10.788;2022-10-03T12:41:46;1.90;;;1.00;;
3337;SDS011;1682;49.286;10.788;2022-10-03T12:44:18;1.20;;;1.10;;
3337;SDS011;1682;49.286;10.788;2022-10-03T12:46:53;3.57;;;1.20;;
3337;SDS011;1682;49.286;10.788;2022-10-03T12:49:33;1.40;;;1.30;;
3337;SDS011;1682;49.286;10.788;2022-10-03T12:52:06;1.77;;;1.43;;
3337;SDS011;1682;49.286;10.788;2022-10-03T12:54:43;1.40;;;1.30;;
3337;SDS011;1682;49.286;10.788;2022-10-03T12:59:59;2.03;;;1.67;;
3337;SDS011;1682;49.286;10.788;2022-10-03T13:02:30;4.10;;;1.87;;
3337;SDS011;1682;49.286;10.788;2022-10-03T13:07:55;4.30;;;1.43;;
3337;SDS011;1682;49.286;10.788;2022-10-03T13:10:28;4.63;;;1.27;;
3337;SDS011;1682;49.286;10.788;2022-10-03T13:13:02;1.20;;;1.10;;
3337;SDS011;1682;49.286;10.788;2022-10-03T13:15:38;6.37;;;1.80;;
3337;SDS011;1682;49.286;10.788;2022-10-03T13:18:11;1.83;;;1.63;;
3337;SDS011;1682;49.286;10.788;2022-10-03T13:20:43;1.90;;;1.63;;
3337;SDS011;1682;49.286;10.788;2022-10-03T13:23:18;2.20;;;1.53;;
3337;SDS011;1682;49.286;10.788;2022-10-03T13:25:49;3.40;;;1.43;;
3337;SDS011;1682;49.286;10.788;2022-10-03T13:28:21;5.13;;;2.40;;
3337;SDS011;1682;49.286;10.788;2022-10-03T13:30:54;4.90;;;2.43;;
3337;SDS011;1682;49.286;10.788;2022-10-03T13:33:23;1.90;;;1.60;;
3337;SDS011;1682;49.286;10.788;2022-10-03T13:35:52;6.03;;;3.70;;
3337;SDS011;1682;49.286;10.788;2022-10-03T13:41:25;2.27;;;1.50;;
3337;SDS011;1682;49.286;10.788;2022-10-03T13:43:56;1.90;;;1.27;;
3337;SDS011;1682;49.286;10.788;2022-10-03T13:46:26;5.73;;;2.00;;
3337;SDS011;1682;49.286;10.788;2022-10-03T13:48:57;2.30;;;1.80;;
3337;SDS011;1682;49.286;10.788;2022-10-03T13:51:26;1.80;;;1.70;;
3337;SDS011;1682;49.286;10.788;2022-10-03T13:53:59;3.70;;;2.43;;
3337;SDS011;1682;49.286;10.788;2022-10-03T13:56:43;1.80;;;1.70;;
3337;SDS011;1682;49.286;10.788;2022-10-03T13:59:26;2.10;;;1.40;;
3337;SDS011;1682;49.286;10.788;2022-10-03T14:01:59;3.43;;;2.60;;
3337;SDS011;1682;49.286;10.788;2022-10-03T14:04:46;2.60;;;2.23;;
3337;SDS011;1682;49.286;10.788;2022-10-03T14:07:20;2.57;;;2.37;;
3337;SDS011;1682;49.286;10.788;2022-10-03T14:10:05;1.73;;;1.30;;
3337;SDS011;1682;49.286;10.788;2022-10-03T14:12:39;2.53;;;1.27;;
3337;SDS011;1682;49.286;10.788;2022-10-03T14:15:23;3.83;;;1.67;;
3337;SDS011;1682;49.286;10.788;2022-10-03T14:17:53;6.03;;;2.20;;
3337;SDS011;1682;49.286;10.788;2022-10-03T14:20:24;1.70;;;1.20;;
3337;SDS011;1682;49.286;10.788;2022-10-03T14:23:00;4.30;;;2.03;;
3337;SDS011;1682;49.286;10.788;2022-10-03T14:25:29;4.40;;;1.97;;
3337;SDS011;1682;49.286;10.788;2022-10-03T14:28:01;3.00;;;1.77;;
3337;SDS011;1682;49.286;10.788;2022-10-03T14:30:34;2.43;;;1.73;;
3337;SDS011;1682;49.286;10.788;2022-10-03T14:33:05;4.73;;;2.27;;
3337;SDS011;1682;49.286;10.788;2022-10-03T14:35:38;3.17;;;2.33;;
3337;SDS011;1682;49.286;10.788;2022-10-03T14:41:09;3.30;;;1.73;;
3337;SDS011;1682;49.286;10.788;2022-10-03T14:43:40;2.07;;;1.60;;
3337;SDS011;1682;49.286;10.788;2022-10-03T14:46:12;1.70;;;1.57;;
3337;SDS011;1682;49.286;10.788;2022-10-03T14:48:40;1.67;;;1.57;;
3337;SDS011;1682;49.286;10.788;2022-10-03T14:51:12;2.10;;;1.53;;
3337;SDS011;1682;49.286;10.788;2022-10-03T14:53:44;2.30;;;1.17;;
3337;SDS011;1682;49.286;10.788;2022-10-03T14:56:12;2.17;;;2.00;;
3337;SDS011;1682;49.286;10.788;2022-10-03T14:58:45;2.13;;;1.30;;
3337;SDS011;1682;49.286;10.788;2022-10-03T15:01:13;3.63;;;1.30;;
3337;SDS011;1682;49.286;10.788;2022-10-03T15:03:44;2.67;;;1.37;;
3337;SDS011;1682;49.286;10.788;2022-10-03T15:06:31;1.50;;;1.40;;
3337;SDS011;1682;49.286;10.788;2022-10-03T15:08:59;3.63;;;1.97;;
3337;SDS011;1682;49.286;10.788;2022-10-03T15:11:28;3.97;;;1.97;;
3337;SDS011;1682;49.286;10.788;2022-10-03T15:13:58;3.03;;;1.90;;
3337;SDS011;1682;49.286;10.788;2022-10-03T15:16:28;2.93;;;2.03;;
3337;SDS011;1682;49.286;10.788;2022-10-03T15:18:59;3.57;;;2.93;;
3337;SDS011;1682;49.286;10.788;2022-10-03T15:21:27;5.93;;;3.30;;
3337;SDS011;1682;49.286;10.788;2022-10-03T15:23:56;2.90;;;2.10;;
3337;SDS011;1682;49.286;10.788;2022-10-03T15:26:25;3.20;;;2.50;;
3337;SDS011;1682;49.286;10.788;2022-10-03T15:28:56;5.77;;;2.53;;
3337;SDS011;1682;49.286;10.788;2022-10-03T15:31:31;4.17;;;2.20;;
3337;SDS011;1682;49.286;10.788;2022-10-03T15:33:59;4.50;;;4.10;;
3337;SDS011;1682;49.286;10.788;2022-10-03T15:36:29;12.23;;;10.90;;
3337;SDS011;1682;49.286;10.788;2022-10-03T15:39:00;5.03;;;4.23;;
3337;SDS011;1682;49.286;10.788;2022-10-03T15:41:30;5.23;;;2.63;;
3337;SDS011;1682;49.286;10.788;2022-10-03T15:44:00;5.47;;;2.10;;
3337;SDS011;1682;49.286;10.788;2022-10-03T15:46:32;1.50;;;1.40;;
3337;SDS011;1682;49.286;10.788;2022-10-03T15:49:00;1.97;;;1.87;;
3337;SDS011;1682;49.286;10.788;2022-10-03T15:51:29;8.30;;;7.60;;
3337;SDS011;1682;49.286;10.788;2022-10-03T15:53:57;7.43;;;6.20;;
3337;SDS011;1682;49.286;10.788;2022-10-03T15:56:28;8.53;;;7.77;;
3337;SDS011;1682;49.286;10.788;2022-10-03T15:58:59;9.00;;;7.10;;
3337;SDS011;1682;49.286;10.788;2022-10-03T16:01:29;5.30;;;4.90;;
3337;SDS011;1682;49.286;10.788;2022-10-03T16:04:00;4.83;;;4.53;;
3337;SDS011;1682;49.286;10.788;2022-10-03T16:06:29;5.27;;;2.60;;
3337;SDS011;1682;49.286;10.788;2022-10-03T16:08:58;4.20;;;2.20;;
3337;SDS011;1682;49.286;10.788;2022-10-03T16:11:26;3.97;;;2.90;;
3337;SDS011;1682;49.286;10.788;2022-10-03T16:14:03;7.50;;;4.80;;
3337;SDS011;1682;49.286;10.788;2022-10-03T16:16:37;2.93;;;2.73;;
3337;SDS011;1682;49.286;10.788;2022-10-03T16:19:17;4.30;;;2.17;;
3337;SDS011;1682;49.286;10.788;2022-10-03T16:21:45;4.27;;;2.63;;
3337;SDS011;1682;49.286;10.788;2022-10-03T16:27:02;4.77;;;2.17;;
3337;SDS011;1682;49.286;10.788;2022-10-03T16:29:32;2.20;;;2.10;;
3337;SDS011;1682;49.286;10.788;2022-10-03T16:32:02;3.53;;;2.30;;
3337;SDS011;1682;49.286;10.788;2022-10-03T16:34:32;2.43;;;1.90;;
3337;SDS011;1682;49.286;10.788;2022-10-03T16:37:00;2.10;;;2.00;;
3337;SDS011;1682;49.286;10.788;2022-10-03T16:39:31;2.00;;;1.80;;
3337;SDS011;1682;49.286;10.788;2022-10-03T16:41:59;2.60;;;2.00;;
3337;SDS011;1682;49.286;10.788;2022-10-03T16:44:38;3.27;;;2.40;;
3337;SDS011;1682;49.286;10.788;2022-10-03T16:47:05;1.80;;;1.70;;
3337;SDS011;1682;49.286;10.788;2022-10-03T16:49:37;9.00;;;7.33;;
3337;SDS011;1682;49.286;10.788;2022-10-03T16:52:23;10.33;;;8.93;;
3337;SDS011;1682;49.286;10.788;2022-10-03T16:54:56;6.47;;;5.47;;
3337;SDS011;1682;49.286;10.788;2022-10-03T16:57:28;3.97;;;3.57;;
3337;SDS011;1682;49.286;10.788;2022-10-03T16:59:57;3.10;;;2.73;;
3337;SDS011;1682;49.286;10.788;2022-10-03T17:02:30;3.80;;;3.23;;
3337;SDS011;1682;49.286;10.788;2022-10-03T17:05:01;3.27;;;3.07;;
3337;SDS011;1682;49.286;10.788;2022-10-03T17:07:31;3.40;;;3.10;;
3337;SDS011;1682;49.286;10.788;2022-10-03T17:10:03;2.93;;;2.73;;
3337;SDS011;1682;49.286;10.788;2022-10-03T17:12:31;3.53;;;2.07;;
3337;SDS011;1682;49.286;10.788;2022-10-03T17:15:01;2.17;;;1.97;;
3337;SDS011;1682;49.286;10.788;2022-10-03T17:17:31;1.77;;;1.67;;
3337;SDS011;1682;49.286;10.788;2022-10-03T17:20:02;3.97;;;1.53;;
3337;SDS011;1682;49.286;10.788;2022-10-03T17:22:33;7.30;;;2.20;;
3337;SDS011;1682;49.286;10.788;2022-10-03T17:25:03;2.13;;;2.00;;
3337;SDS011;1682;49.286;10.788;2022-10-03T17:27:34;6.93;;;2.00;;
3337;SDS011;1682;49.286;10.788;2022-10-03T17:30:03;3.43;;;2.60;;
3337;SDS011;1682;49.286;10.788;2022-10-03T17:32:32;5.03;;;2.63;;
3337;SDS011;1682;49.286;10.788;2022-10-03T17:35:04;5.77;;;2.50;;
3337;SDS011;1682;49.286;10.788;2022-10-03T17:40:17;9.60;;;3.60;;
3337;SDS011;1682;49.286;10.788;2022-10-03T17:42:48;3.37;;;2.37;;
3337;SDS011;1682;49.286;10.788;2022-10-03T17:45:28;3.07;;;2.77;;
3337;SDS011;1682;49.286;10.788;2022-10-03T17:47:58;3.70;;;2.47;;
3337;SDS011;1682;49.286;10.788;2022-10-03T17:50:29;2.50;;;2.30;;
3337;SDS011;1682;49.286;10.788;2022-10-03T17:52:56;4.57;;;2.00;;
3337;SDS011;1682;49.286;10.788;2022-10-03T17:55:26;4.63;;;2.20;;
3337;SDS011;1682;49.286;10.788;2022-10-03T17:57:55;4.20;;;2.50;;
3337;SDS011;1682;49.286;10.788;2022-10-03T18:00:25;4.73;;;1.93;;
3337;SDS011;1682;49.286;10.788;2022-10-03T18:02:54;3.00;;;2.07;;
3337;SDS011;1682;49.286;10.788;2022-10-03T18:05:25;4.93;;;4.50;;
3337;SDS011;1682;49.286;10.788;2022-10-03T18:07:55;2.20;;;2.10;;
3337;SDS011;1682;49.286;10.788;2022-10-03T18:10:23;4.63;;;2.50;;
3337;SDS011;1682;49.286;10.788;2022-10-03T18:12:54;3.83;;;2.30;;
3337;SDS011;1682;49.286;10.788;2022-10-03T18:15:24;2.63;;;2.43;;
3337;SDS011;1682;49.286;10.788;2022-10-03T18:18:04;4.37;;;2.40;;
3337;SDS011;1682;49.286;10.788;2022-10-03T18:20:38;3.77;;;2.80;;
3337;SDS011;1682;49.286;10.788;2022-10-03T18:23:10;2.73;;;2.50;;
3337;SDS011;1682;49.286;10.788;2022-10-03T18:25:47;6.33;;;2.70;;
3337;SDS011;1682;49.286;10.788;2022-10-03T18:28:31;2.57;;;2.37;;
3337;SDS011;1682;49.286;10.788;2022-10-03T18:31:01;7.70;;;2.50;;
3337;SDS011;1682;49.286;10.788;2022-10-03T18:33:31;3.33;;;1.97;;
3337;SDS011;1682;49.286;10.788;2022-10-03T18:36:00;6.10;;;3.10;;
3337;SDS011;1682;49.286;10.788;2022-10-03T18:38:35;7.10;;;2.93;;